Time;durP1;ratioP1;P1;durP2;ratioP2;P2;SDS_P1;SDS_P2;PMS_P1;PMS_P2;Temp;Humidity;BMP_temperature;BMP_pressure;BME280_temperature;BME280_humidity;BME280_pressure;Samples;Min_cycle;Max_cycle;Signal;HPM_P1;HPM_P2
2024/01/16 00:00:32;;;;;;;18.65;11.80;;;;;;;0.23;66.46;97397.91;6275467;22;20008;-55
2024/01/16 00:02:57;;;;;;;17.02;11.52;;;;;;;0.23;66.84;97387.38;6275833;22;20083;-58
2024/01/16 00:05:23;;;;;;;17.10;11.55;;;;;;;0.27;66.55;97394.09;6275891;22;20083;-57
2024/01/16 00:07:49;;;;;;;16.58;10.63;;;;;;;0.30;65.98;97401.75;6276403;22;20008;-58
2024/01/16 00:10:14;;;;;;;16.38;11.80;;;;;;;0.28;65.97;97391.34;6275103;22;20078;-56
2024/01/16 00:12:41;;;;;;;16.67;11.18;;;;;;;0.32;66.08;97402.47;6276160;22;20391;-58
2024/01/16 00:15:07;;;;;;;16.70;11.57;;;;;;;0.31;65.77;97385.00;6276960;22;20392;-55
2024/01/16 00:17:32;;;;;;;19.02;12.05;;;;;;;0.33;65.70;97391.00;6276098;22;20000;-54
2024/01/16 00:20:01;;;;;;;16.10;11.13;;;;;;;0.31;65.99;97394.69;6276352;22;20087;-56
2024/01/16 00:22:27;;;;;;;16.15;11.18;;;;;;;0.37;65.37;97384.53;6276057;22;20000;-55
2024/01/16 00:24:52;;;;;;;18.08;11.40;;;;;;;0.34;66.05;97397.06;6276353;22;20002;-55
2024/01/16 00:27:18;;;;;;;16.60;11.77;;;;;;;0.31;65.27;97389.41;6276365;22;20002;-50
2024/01/16 00:29:43;;;;;;;17.35;12.02;;;;;;;0.22;65.64;97373.41;6276555;22;20000;-55
2024/01/16 00:32:09;;;;;;;15.73;10.10;;;;;;;0.39;65.57;97390.50;6276497;22;20305;-55
2024/01/16 00:34:34;;;;;;;17.27;11.85;;;;;;;0.35;65.74;97394.34;6276244;22;20065;-57
2024/01/16 00:37:00;;;;;;;17.27;11.32;;;;;;;0.14;65.63;97360.00;6276153;22;20000;-54
2024/01/16 00:39:25;;;;;;;16.52;10.98;;;;;;;0.34;65.10;97395.28;6276404;22;20003;-56
2024/01/16 00:41:51;;;;;;;16.77;11.15;;;;;;;0.31;65.47;97413.09;6276585;22;20019;-55
2024/01/16 00:44:17;;;;;;;16.67;11.02;;;;;;;0.34;65.81;97394.44;6276216;22;20344;-55
2024/01/16 00:46:42;;;;;;;15.40;10.80;;;;;;;0.40;65.20;97405.34;6276099;22;20010;-56
2024/01/16 00:49:08;;;;;;;16.58;10.98;;;;;;;0.40;65.37;97400.06;6276953;22;20392;-59
2024/01/16 00:51:33;;;;;;;17.05;11.40;;;;;;;0.34;65.59;97395.28;6275892;22;20007;-55
2024/01/16 00:53:59;;;;;;;18.98;12.18;;;;;;;0.35;65.40;97399.59;6275911;22;20309;-56
2024/01/16 00:56:27;;;;;;;16.33;11.25;;;;;;;0.27;65.51;97381.78;6276575;22;19999;-52
2024/01/16 00:58:53;;;;;;;19.10;12.18;;;;;;;0.32;65.57;97401.63;6276005;22;20003;-51
2024/01/16 01:01:19;;;;;;;18.90;11.65;;;;;;;0.31;65.82;97387.66;6275965;22;20007;-56
2024/01/16 01:03:45;;;;;;;17.77;11.82;;;;;;;0.30;65.82;97383.34;6276582;22;20389;-55
2024/01/16 01:06:11;;;;;;;16.88;11.55;;;;;;;0.34;65.26;97390.03;6276606;22;20010;-54
2024/01/16 01:08:37;;;;;;;18.88;11.77;;;;;;;0.33;65.61;97393.63;6275770;22;20018;-57
2024/01/16 01:11:02;;;;;;;18.63;12.13;;;;;;;0.30;65.67;97391.22;6274909;22;20039;-57
2024/01/16 01:13:28;;;;;;;16.23;11.25;;;;;;;0.33;65.76;97395.41;6275515;22;19996;-54
2024/01/16 01:15:54;;;;;;;16.55;11.38;;;;;;;0.33;65.49;97377.81;6276400;22;20079;-52
2024/01/16 01:18:19;;;;;;;15.13;10.82;;;;;;;0.32;65.44;97381.41;6275889;22;20289;-53
2024/01/16 01:20:45;;;;;;;17.60;11.68;;;;;;;0.36;65.29;97388.13;6275886;22;20297;-55
2024/01/16 01:23:11;;;;;;;22.65;11.45;;;;;;;0.30;65.81;97383.34;6276884;22;20051;-57
2024/01/16 01:25:36;;;;;;;17.48;11.77;;;;;;;0.31;65.86;97384.16;6276336;22;20000;-58
2024/01/16 01:28:02;;;;;;;18.50;11.30;;;;;;;0.26;64.96;97372.19;6275767;22;20003;-56
2024/01/16 01:30:27;;;;;;;16.25;11.30;;;;;;;0.32;64.92;97386.69;6275830;22;20101;-55
2024/01/16 01:32:53;;;;;;;16.30;10.93;;;;;;;0.27;65.50;97370.41;6274636;22;19999;-54
2024/01/16 01:35:21;;;;;;;16.00;11.27;;;;;;;0.28;65.55;97369.47;6276474;22;20030;-55
2024/01/16 01:37:47;;;;;;;18.60;11.52;;;;;;;0.33;65.44;97374.34;6275650;22;20042;-57
2024/01/16 01:40:15;;;;;;;18.10;11.07;;;;;;;0.37;65.59;97365.28;6275815;22;20012;-55
2024/01/16 01:42:42;;;;;;;18.08;11.90;;;;;;;0.43;65.02;97370.88;6276748;22;20012;-58
2024/01/16 01:45:09;;;;;;;17.42;11.77;;;;;;;0.43;65.04;97372.69;6275332;22;20011;-56
2024/01/16 01:47:36;;;;;;;16.77;11.20;;;;;;;0.40;64.94;97372.94;6275480;22;20396;-55
2024/01/16 01:50:03;;;;;;;16.17;10.73;;;;;;;0.46;64.60;97382.13;6275894;22;19999;-56
2024/01/16 01:52:32;;;;;;;17.60;11.45;;;;;;;0.14;64.76;97325.81;6275099;22;20007;-56
2024/01/16 01:54:58;;;;;;;16.50;10.50;;;;;;;0.43;64.59;97373.50;6275958;22;20288;-57
2024/01/16 01:57:24;;;;;;;16.55;10.65;;;;;;;0.43;64.86;97377.94;6275130;22;20349;-52
2024/01/16 01:59:50;;;;;;;18.55;12.20;;;;;;;0.46;64.75;97382.97;6274795;22;20008;-53
2024/01/16 02:02:16;;;;;;;15.98;11.18;;;;;;;0.40;65.09;97375.56;6275303;22;20008;-61
2024/01/16 02:04:43;;;;;;;16.45;11.10;;;;;;;0.45;64.61;97372.53;6276364;22;20007;-56
2024/01/16 02:07:09;;;;;;;17.13;10.90;;;;;;;0.35;64.22;97373.28;6275529;22;20137;-56
2024/01/16 02:09:35;;;;;;;16.90;11.05;;;;;;;0.12;64.90;97333.81;6275780;22;20083;-55
2024/01/16 02:12:01;;;;;;;16.58;10.80;;;;;;;0.32;64.52;97359.50;6275696;22;20338;-54
2024/01/16 02:14:27;;;;;;;18.20;11.18;;;;;;;0.29;64.64;97355.34;6275618;22;20014;-56
2024/01/16 02:16:53;;;;;;;17.52;10.82;;;;;;;0.39;64.78;97366.81;6275719;22;20031;-56
2024/01/16 02:19:19;;;;;;;16.38;11.25;;;;;;;0.38;64.00;97374.84;6275258;22;20039;-53
2024/01/16 02:21:49;;;;;;;15.70;10.93;;;;;;;0.42;64.53;97368.38;6276266;22;20400;-58
2024/01/16 02:24:16;;;;;;;16.58;11.00;;;;;;;0.38;63.90;97367.78;6275883;22;20035;-54
2024/01/16 02:26:42;;;;;;;17.48;11.25;;;;;;;0.35;64.46;97375.91;6275805;22;20011;-57
2024/01/16 02:29:08;;;;;;;16.05;10.52;;;;;;;0.42;63.90;97385.00;6276031;22;20004;-58
2024/01/16 02:31:34;;;;;;;15.70;10.88;;;;;;;0.39;64.36;97376.53;6275419;22;20050;-56
2024/01/16 02:34:01;;;;;;;16.10;10.80;;;;;;;0.36;64.17;97379.38;6275179;22;19999;-53
2024/01/16 02:36:27;;;;;;;17.15;10.70;;;;;;;0.32;64.22;97370.88;6274909;22;20018;-52
2024/01/16 02:38:53;;;;;;;17.05;11.32;;;;;;;0.28;64.33;97380.81;6275179;22;20003;-56
2024/01/16 02:41:18;;;;;;;15.70;10.73;;;;;;;0.27;64.42;97379.13;6277334;22;20012;-57
2024/01/16 02:43:44;;;;;;;16.40;10.80;;;;;;;0.28;64.44;97380.81;6278317;22;20018;-56
2024/01/16 02:46:10;;;;;;;16.52;11.63;;;;;;;0.27;64.80;97376.50;6276721;22;20007;-56
2024/01/16 02:48:36;;;;;;;19.55;11.20;;;;;;;0.35;64.56;97365.38;6276844;22;20000;-58
2024/01/16 02:51:03;;;;;;;18.38;11.43;;;;;;;0.10;64.16;97332.25;6276494;22;20514;-55
2024/01/16 02:53:29;;;;;;;17.90;11.00;;;;;;;0.33;64.42;97375.19;6277515;22;20071;-56
2024/01/16 02:55:58;;;;;;;17.42;11.35;;;;;;;0.33;63.75;97393.63;6276903;22;20035;-55
2024/01/16 02:58:24;;;;;;;15.70;10.52;;;;;;;0.24;64.60;97376.75;6275768;22;20015;-52
2024/01/16 03:00:50;;;;;;;16.73;10.73;;;;;;;0.22;64.96;97378.66;6277564;22;20023;-56
2024/01/16 03:03:15;;;;;;;16.75;11.13;;;;;;;0.10;64.62;97369.06;6277580;22;20011;-57
2024/01/16 03:05:40;;;;;;;14.27;10.15;;;;;;;0.29;64.35;97386.94;6276750;22;20003;-57
2024/01/16 03:08:06;;;;;;;18.42;11.70;;;;;;;0.28;64.51;97393.16;6277521;22;19999;-54
2024/01/16 03:10:32;;;;;;;17.27;10.98;;;;;;;0.27;64.29;97396.75;6277715;22;20031;-56
2024/01/16 03:12:58;;;;;;;21.30;11.10;;;;;;;0.21;64.44;97390.16;6277119;22;20046;-57
2024/01/16 03:15:24;;;;;;;18.98;10.60;;;;;;;0.18;64.37;97384.28;6276598;22;20022;-57
2024/01/16 03:17:49;;;;;;;16.65;10.52;;;;;;;0.19;64.35;97396.47;6277895;22;20328;-56
2024/01/16 03:20:16;;;;;;;17.73;11.13;;;;;;;-0.06;64.76;97345.75;6277488;22;20011;-52
2024/01/16 03:22:41;;;;;;;15.82;11.00;;;;;;;0.27;64.15;97396.75;6277076;22;20013;-52
2024/01/16 03:25:08;;;;;;;16.17;11.10;;;;;;;0.30;63.93;97396.50;6276415;22;20035;-57
2024/01/16 03:27:34;;;;;;;17.38;11.80;;;;;;;0.20;64.89;97398.16;6277162;22;20000;-56
2024/01/16 03:30:01;;;;;;;18.30;11.50;;;;;;;0.13;64.77;97388.09;6277474;22;20121;-57
2024/01/16 03:32:29;;;;;;;17.70;11.13;;;;;;;0.16;64.83;97392.31;6275762;22;20000;-56
2024/01/16 03:34:55;;;;;;;15.15;10.68;;;;;;;0.17;64.88;97387.88;6276247;22;20007;-55
2024/01/16 03:37:20;;;;;;;15.63;11.30;;;;;;;0.24;64.69;97399.59;6277312;22;20034;-59
2024/01/16 03:39:46;;;;;;;16.55;11.05;;;;;;;0.27;64.50;97396.75;6275854;22;20014;-55
2024/01/16 03:42:13;;;;;;;18.05;11.80;;;;;;;0.21;64.90;97389.28;6276392;22;20077;-55
2024/01/16 03:44:40;;;;;;;17.48;11.07;;;;;;;0.20;64.69;97383.22;6276343;22;20011;-54
2024/01/16 03:47:06;;;;;;;19.45;12.20;;;;;;;0.16;64.83;97387.03;6275479;22;20000;-56
2024/01/16 03:49:32;;;;;;;17.85;11.10;;;;;;;0.16;64.76;97378.28;6277265;22;20038;-53
2024/01/16 03:51:58;;;;;;;20.83;11.95;;;;;;;0.16;65.32;97380.94;6276924;22;20269;-55
2024/01/16 03:54:23;;;;;;;19.23;11.60;;;;;;;0.19;64.71;97376.28;6276559;22;20004;-56
2024/01/16 03:56:49;;;;;;;18.33;11.65;;;;;;;0.03;65.12;97360.84;6277007;22;20042;-55
2024/01/16 03:59:14;;;;;;;18.15;12.07;;;;;;;0.11;65.32;97391.78;6277150;22;20003;-57
2024/01/16 04:01:40;;;;;;;18.90;11.95;;;;;;;0.05;65.38;97384.38;6275868;22;20008;-54
2024/01/16 04:04:06;;;;;;;21.92;12.20;;;;;;;0.02;65.82;97390.75;6276158;22;20027;-55
2024/01/16 04:06:32;;;;;;;20.67;12.65;;;;;;;0.04;65.52;97391.47;6275915;22;20420;-57
2024/01/16 04:08:58;;;;;;;19.33;12.43;;;;;;;0.05;65.56;97385.22;6274999;22;20019;-54
2024/01/16 04:11:23;;;;;;;22.98;12.98;;;;;;;0.07;65.28;97374.56;6276633;22;20050;-59
2024/01/16 04:13:49;;;;;;;17.63;11.60;;;;;;;0.17;65.02;97385.22;6276710;22;20146;-51
2024/01/16 04:16:15;;;;;;;19.60;12.23;;;;;;;0.11;64.31;97376.88;6276251;22;19996;-52
2024/01/16 04:18:42;;;;;;;22.85;12.93;;;;;;;0.18;64.25;97384.28;6275835;22;20027;-53
2024/01/16 04:21:08;;;;;;;25.00;13.10;;;;;;;0.10;65.25;97387.50;6275312;22;20097;-53
2024/01/16 04:23:33;;;;;;;18.67;12.32;;;;;;;0.11;65.07;97405.81;6276699;22;19996;-49
2024/01/16 04:25:59;;;;;;;21.83;12.27;;;;;;;0.14;64.31;97381.88;6276241;22;20316;-50
2024/01/16 04:28:24;;;;;;;19.42;12.05;;;;;;;0.12;64.34;97386.44;6276653;22;19999;-55
2024/01/16 04:30:50;;;;;;;19.42;12.15;;;;;;;0.10;64.72;97384.84;6277119;22;20324;-52
2024/01/16 04:33:16;;;;;;;21.52;12.60;;;;;;;0.09;64.64;97386.66;6276300;22;20038;-56
2024/01/16 04:35:41;;;;;;;20.85;12.38;;;;;;;0.08;64.37;97395.53;6275856;22;20004;-57
2024/01/16 04:38:07;;;;;;;20.25;12.70;;;;;;;-0.02;63.96;97384.88;6276296;22;20003;-54
2024/01/16 04:40:34;;;;;;;20.90;12.85;;;;;;;0.05;64.52;97402.81;6275964;22;20058;-57
2024/01/16 04:42:59;;;;;;;22.00;13.27;;;;;;;0.02;64.06;97396.00;6275856;22;20012;-55
2024/01/16 04:45:25;;;;;;;20.00;12.48;;;;;;;-0.01;63.66;97391.81;6276224;22;19999;-61
2024/01/16 04:47:50;;;;;;;20.15;12.60;;;;;;;-0.03;63.73;97388.44;6275965;22;20000;-57
2024/01/16 04:50:16;;;;;;;20.30;12.07;;;;;;;0.01;64.19;97420.63;6275764;22;20078;-57
2024/01/16 04:52:41;;;;;;;20.95;13.05;;;;;;;-0.02;64.21;97411.16;6276067;22;20007;-59
2024/01/16 04:55:07;;;;;;;21.92;13.40;;;;;;;-0.01;63.96;97406.72;6276209;22;20082;-57
2024/01/16 04:57:33;;;;;;;21.35;13.13;;;;;;;-0.06;64.49;97425.50;6276240;22;20090;-58
2024/01/16 04:59:58;;;;;;;24.25;13.68;;;;;;;-0.42;64.34;97361.59;6274022;22;20365;-54
2024/01/16 05:02:24;;;;;;;21.13;12.50;;;;;;;-0.09;63.96;97414.38;6275560;22;20031;-55
2024/01/16 05:04:51;;;;;;;21.30;13.25;;;;;;;-0.07;64.33;97417.72;6276133;22;20474;-57
2024/01/16 05:07:20;;;;;;;21.75;13.18;;;;;;;-0.66;64.41;97330.13;6275877;22;20012;-51
2024/01/16 05:09:46;;;;;;;23.27;13.07;;;;;;;-0.16;64.06;97409.59;6274485;22;20011;-50
2024/01/16 05:12:13;;;;;;;21.92;13.48;;;;;;;-0.06;64.22;97422.88;6275961;22;20004;-51
2024/01/16 05:14:38;;;;;;;22.05;13.80;;;;;;;-0.07;64.09;97413.31;6275920;22;20007;-50
2024/01/16 05:17:04;;;;;;;22.85;13.70;;;;;;;-0.11;64.00;97425.03;6275264;22;20077;-52
2024/01/16 05:19:29;;;;;;;24.85;13.60;;;;;;;-0.16;63.70;97414.84;6275701;22;20015;-51
2024/01/16 05:21:55;;;;;;;20.23;12.48;;;;;;;-0.13;64.08;97423.47;6275781;22;20083;-50
2024/01/16 05:24:20;;;;;;;22.35;13.07;;;;;;;-0.22;64.12;97407.44;6276133;22;19996;-54
2024/01/16 05:26:46;;;;;;;21.88;13.73;;;;;;;-0.19;63.91;97414.22;6276017;22;20022;-53
2024/01/16 05:29:11;;;;;;;24.40;14.65;;;;;;;-0.13;63.97;97418.19;6275230;22;20009;-54
2024/01/16 05:31:44;;;;;;;25.13;13.63;;;;;;;-0.06;64.08;97420.25;6275267;22;19995;-57
2024/01/16 05:34:12;;;;;;;24.80;13.48;;;;;;;-0.01;63.69;97423.38;6276352;22;20012;-58
2024/01/16 05:36:38;;;;;;;23.85;14.10;;;;;;;-0.07;63.96;97417.72;6275388;22;20385;-57
2024/01/16 05:39:04;;;;;;;24.35;14.18;;;;;;;-0.10;63.89;97417.97;6275214;22;20035;-56
2024/01/16 05:41:34;;;;;;;22.30;14.18;;;;;;;-0.06;63.52;97401.84;6275666;22;20011;-55
2024/01/16 05:44:00;;;;;;;22.38;13.38;;;;;;;-0.13;63.83;97418.19;6275762;22;20007;-57
2024/01/16 05:46:26;;;;;;;24.63;14.48;;;;;;;-0.16;64.07;97420.09;6276050;22;20018;-58
2024/01/16 05:48:51;;;;;;;23.00;13.98;;;;;;;-0.23;64.52;97411.00;6274195;22;20003;-54
2024/01/16 05:51:17;;;;;;;24.80;14.02;;;;;;;-0.26;63.87;97403.34;6274633;22;20059;-58
2024/01/16 05:53:43;;;;;;;25.33;14.50;;;;;;;-0.18;64.07;97414.13;6275407;22;19996;-59
2024/01/16 05:56:09;;;;;;;28.02;15.20;;;;;;;-0.30;64.34;97402.75;6275106;22;20007;-58
2024/01/16 05:58:38;;;;;;;23.90;15.10;;;;;;;-0.23;64.15;97412.78;6275067;22;20057;-58
2024/01/16 06:01:05;;;;;;;27.23;15.13;;;;;;;-0.17;64.25;97401.81;6275402;22;19999;-59
2024/01/16 06:03:30;;;;;;;28.23;15.98;;;;;;;-0.28;64.23;97393.91;6275212;22;20012;-58
2024/01/16 06:05:56;;;;;;;28.80;15.77;;;;;;;-0.22;63.89;97399.53;6275476;22;20046;-54
2024/01/16 06:08:21;;;;;;;50.65;15.57;;;;;;;-0.24;64.45;97395.34;6274721;22;20008;-58
2024/01/16 06:10:47;;;;;;;24.90;14.32;;;;;;;-0.18;63.71;97408.88;6275717;22;20077;-57
2024/01/16 06:13:12;;;;;;;25.10;14.35;;;;;;;-0.23;64.05;97418.91;6275685;22;20285;-55
2024/01/16 06:15:38;;;;;;;26.35;14.63;;;;;;;-0.20;64.05;97421.31;6277075;22;20007;-57
2024/01/16 06:18:04;;;;;;;23.27;15.40;;;;;;;-0.21;63.81;97430.16;6277234;22;20441;-55
2024/01/16 06:20:30;;;;;;;29.10;15.65;;;;;;;-0.18;63.96;97445.69;6277722;22;20007;-53
2024/01/16 06:22:56;;;;;;;28.75;15.40;;;;;;;-0.20;63.73;97433.59;6277617;22;20033;-55
2024/01/16 06:25:22;;;;;;;27.90;15.73;;;;;;;-0.13;63.92;97450.59;6277421;22;20023;-57
2024/01/16 06:27:47;;;;;;;29.35;16.02;;;;;;;-0.09;64.00;97443.31;6277350;22;20271;-59
2024/01/16 06:30:13;;;;;;;26.63;14.55;;;;;;;-0.13;63.18;97437.44;6277428;22;20097;-58
2024/01/16 06:32:39;;;;;;;24.70;14.10;;;;;;;-0.06;62.75;97428.16;6277436;22;20004;-54
2024/01/16 06:35:05;;;;;;;23.63;14.50;;;;;;;-0.12;63.51;97419.88;6277685;22;20357;-55
2024/01/16 06:37:31;;;;;;;25.92;15.38;;;;;;;-0.15;63.67;97431.44;6277459;22;20007;-54
2024/01/16 06:39:56;;;;;;;27.63;15.98;;;;;;;-0.11;63.43;97432.06;6277533;22;20427;-56
2024/01/16 06:42:22;;;;;;;27.67;14.40;;;;;;;-0.19;63.22;97430.00;6277325;22;20019;-57
2024/01/16 06:44:47;;;;;;;26.13;14.50;;;;;;;-0.22;63.41;97420.59;6275799;22;20022;-56
2024/01/16 06:47:13;;;;;;;32.10;17.33;;;;;;;-0.39;63.13;97402.59;6276908;22;20007;-57
2024/01/16 06:49:38;;;;;;;30.30;17.17;;;;;;;-0.10;62.98;97457.41;6277281;22;20000;-57
2024/01/16 06:52:04;;;;;;;25.23;15.43;;;;;;;-0.16;63.04;97446.41;6277644;22;20053;-59
2024/01/16 06:54:29;;;;;;;29.45;15.68;;;;;;;-0.16;63.15;97456.06;6277317;22;20318;-57
2024/01/16 06:56:55;;;;;;;25.27;14.85;;;;;;;-0.11;63.28;97458.38;6277025;22;20393;-58
2024/01/16 06:59:21;;;;;;;26.23;15.27;;;;;;;-0.18;63.56;97442.22;6277565;22;20383;-58
2024/01/16 07:01:48;;;;;;;25.45;15.13;;;;;;;-0.13;63.38;97439.25;6277228;22;20007;-59
2024/01/16 07:04:14;;;;;;;22.60;14.15;;;;;;;-0.20;63.26;97431.81;6276989;22;19999;-58
2024/01/16 07:06:40;;;;;;;26.65;15.35;;;;;;;-0.21;63.52;97424.03;6276616;22;20301;-57
2024/01/16 07:09:06;;;;;;;25.83;15.57;;;;;;;-0.23;63.82;97444.34;6276616;22;20027;-56
2024/01/16 07:11:31;;;;;;;27.95;15.38;;;;;;;-0.21;63.59;97460.84;6277735;22;20011;-55
2024/01/16 07:13:57;;;;;;;25.05;15.27;;;;;;;-0.23;63.46;97442.56;6276659;22;20423;-55
2024/01/16 07:16:22;;;;;;;27.27;16.45;;;;;;;-0.18;63.56;97463.25;6276796;22;20003;-55
2024/01/16 07:18:48;;;;;;;33.78;16.23;;;;;;;-0.18;63.05;97458.00;6277640;22;20397;-55
2024/01/16 07:21:20;;;;;;;27.67;16.13;;;;;;;-0.16;63.79;97461.34;6277540;22;20008;-52
2024/01/16 07:23:46;;;;;;;39.45;17.25;;;;;;;-0.42;63.39;97431.75;6275883;22;20270;-58
2024/01/16 07:26:12;;;;;;;27.08;16.52;;;;;;;-0.31;63.96;97452.81;6276384;22;20399;-59
2024/01/16 07:28:37;;;;;;;27.80;16.00;;;;;;;-0.31;63.94;97444.91;6276955;22;20011;-55
2024/01/16 07:31:03;;;;;;;28.23;15.75;;;;;;;-0.31;64.02;97455.44;6277057;22;20093;-53
2024/01/16 07:33:29;;;;;;;29.77;17.38;;;;;;;-0.28;64.29;97455.19;6276680;22;19999;-51
2024/01/16 07:35:54;;;;;;;31.00;17.70;;;;;;;-0.29;63.70;97453.53;6276343;22;20131;-52
2024/01/16 07:38:20;;;;;;;31.58;16.27;;;;;;;-0.30;64.14;97455.34;6277228;22;20003;-53
2024/01/16 07:40:46;;;;;;;31.42;16.50;;;;;;;-0.61;64.17;97419.94;6276909;22;20008;-54
2024/01/16 07:43:11;;;;;;;28.45;16.23;;;;;;;-0.28;63.82;97443.84;6276164;22;20050;-47
2024/01/16 07:45:37;;;;;;;26.02;15.20;;;;;;;-0.23;63.96;97447.84;6276489;22;20003;-49
2024/01/16 07:48:03;;;;;;;29.38;16.48;;;;;;;-0.21;63.55;97447.69;6277129;22;20007;-52
2024/01/16 07:50:29;;;;;;;28.40;16.17;;;;;;;-0.26;63.37;97434.88;6276635;22;20285;-49
2024/01/16 07:52:54;;;;;;;30.15;16.45;;;;;;;-0.30;63.95;97434.28;6276535;22;20281;-52
2024/01/16 07:55:19;;;;;;;29.20;16.92;;;;;;;-0.58;64.04;97388.19;6276580;22;20414;-48
2024/01/16 07:57:45;;;;;;;33.35;17.73;;;;;;;-0.33;63.85;97420.53;6275647;22;20413;-60
2024/01/16 08:00:11;;;;;;;26.05;15.55;;;;;;;-0.23;62.84;97431.19;6266106;22;20019;-61
2024/01/16 08:02:37;;;;;;;24.50;14.93;;;;;;;-0.13;62.21;97420.81;6272294;22;20027;-56
2024/01/16 08:05:04;;;;;;;26.40;14.80;;;;;;;-0.15;62.13;97416.53;6275627;22;20393;-57
2024/01/16 08:07:30;;;;;;;24.40;14.23;;;;;;;-0.26;61.89;97398.06;6275801;22;20411;-57
2024/01/16 08:09:56;;;;;;;21.55;13.30;;;;;;;0.03;61.80;97429.25;6275055;22;20008;-54
2024/01/16 08:12:21;;;;;;;26.42;13.88;;;;;;;0.02;61.25;97422.31;6274947;22;19996;-60
2024/01/16 08:14:47;;;;;;;24.35;13.95;;;;;;;0.13;61.20;97422.31;6274959;22;20004;-56
2024/01/16 08:17:12;;;;;;;27.83;14.52;;;;;;;-0.03;60.96;97384.97;6274959;22;20075;-54
2024/01/16 08:19:38;;;;;;;31.08;13.63;;;;;;;0.36;61.07;97422.34;6275398;22;20008;-56
2024/01/16 08:22:04;;;;;;;22.63;13.65;;;;;;;0.46;60.33;97426.88;6275896;22;20301;-60
2024/01/16 08:24:29;;;;;;;25.50;13.23;;;;;;;0.50;60.30;97425.69;6275528;22;20392;-56
2024/01/16 08:26:57;;;;;;;25.70;13.43;;;;;;;0.43;59.82;97407.72;6275267;22;20004;-56
2024/01/16 08:29:24;;;;;;;21.73;13.93;;;;;;;0.46;59.53;97418.97;6275295;22;20061;-57
2024/01/16 08:31:51;;;;;;;21.80;13.07;;;;;;;0.45;59.24;97417.31;6275009;22;20064;-56
2024/01/16 08:34:16;;;;;;;19.92;12.35;;;;;;;0.08;59.50;97363.09;6274747;22;20004;-58
2024/01/16 08:36:42;;;;;;;22.35;13.05;;;;;;;0.39;59.68;97408.94;6275171;22;20019;-55
2024/01/16 08:39:07;;;;;;;21.15;10.68;;;;;;;0.53;58.42;97420.19;6275552;22;20038;-53
2024/01/16 08:41:33;;;;;;;23.58;12.70;;;;;;;0.09;59.27;97370.88;6275732;22;20377;-51
2024/01/16 08:43:58;;;;;;;22.95;12.15;;;;;;;0.04;59.20;97352.00;6274732;22;20031;-53
2024/01/16 08:46:24;;;;;;;22.58;12.50;;;;;;;0.41;58.99;97419.34;6275506;22;20000;-56
2024/01/16 08:48:49;;;;;;;24.17;12.65;;;;;;;0.06;58.81;97357.97;6275425;22;20009;-57
2024/01/16 08:51:15;;;;;;;20.50;13.20;;;;;;;0.38;59.15;97406.44;6274538;22;20050;-54
2024/01/16 08:53:42;;;;;;;23.13;13.55;;;;;;;0.45;59.02;97415.53;6275445;22;20041;-54
2024/01/16 08:56:08;;;;;;;22.48;13.48;;;;;;;0.50;58.42;97407.28;6274345;22;20004;-62
2024/01/16 08:58:38;;;;;;;20.27;12.45;;;;;;;0.54;57.52;97403.44;6273761;22;20008;-58
2024/01/16 09:01:07;;;;;;;23.90;11.20;;;;;;;0.54;58.28;97391.09;6275023;22;20048;-56
2024/01/16 09:03:33;;;;;;;20.38;12.20;;;;;;;0.81;57.16;97408.28;6275836;22;20010;-60
2024/01/16 09:05:59;;;;;;;20.23;12.35;;;;;;;0.73;57.16;97415.16;6275767;22;20066;-59
2024/01/16 09:08:26;;;;;;;19.45;11.65;;;;;;;0.67;57.96;97395.41;6274025;22;20077;-56
2024/01/16 09:10:52;;;;;;;24.02;11.95;;;;;;;0.69;58.24;97396.94;6273786;22;20019;-59
2024/01/16 09:13:18;;;;;;;19.05;12.05;;;;;;;0.78;57.94;97389.28;6274695;22;20011;-60
2024/01/16 09:15:43;;;;;;;20.23;12.18;;;;;;;0.85;56.78;97383.41;6274969;22;20292;-56
2024/01/16 09:18:09;;;;;;;21.27;11.93;;;;;;;0.89;57.14;97377.88;6274735;22;20003;-56
2024/01/16 09:20:35;;;;;;;21.88;12.15;;;;;;;0.91;57.14;97382.06;6272654;22;20008;-57
2024/01/16 09:23:00;;;;;;;22.27;11.85;;;;;;;0.95;57.02;97391.38;6274507;22;20548;-57
2024/01/16 09:25:27;;;;;;;19.92;11.93;;;;;;;0.91;57.15;97374.16;6275104;22;20075;-57
2024/01/16 09:27:53;;;;;;;23.13;13.05;;;;;;;1.03;56.57;97380.22;6274655;22;20098;-58
2024/01/16 09:30:19;;;;;;;21.75;12.85;;;;;;;1.06;56.79;97385.25;6274100;22;20474;-59
2024/01/16 09:32:45;;;;;;;21.67;12.43;;;;;;;1.16;56.54;97379.25;6274732;22;20281;-57
2024/01/16 09:35:11;;;;;;;21.70;12.70;;;;;;;1.22;56.54;97382.22;6275316;22;20088;-58
2024/01/16 09:37:36;;;;;;;18.95;11.57;;;;;;;1.22;56.86;97391.91;6275392;22;20008;-57
2024/01/16 09:40:05;;;;;;;23.58;12.35;;;;;;;1.22;56.47;97376.09;6274998;22;20385;-52
2024/01/16 09:42:31;;;;;;;19.63;12.13;;;;;;;1.25;56.01;97379.34;6274645;22;20305;-57
2024/01/16 09:44:57;;;;;;;19.92;11.65;;;;;;;1.20;55.79;97381.50;6274052;22;20004;-57
2024/01/16 09:47:24;;;;;;;18.75;10.90;;;;;;;0.86;56.41;97321.00;6274173;22;20000;-59
2024/01/16 09:49:50;;;;;;;22.00;12.70;;;;;;;1.18;56.52;97404.50;6276098;22;20000;-58
2024/01/16 09:52:16;;;;;;;19.13;12.00;;;;;;;1.14;56.26;97389.91;6277134;22;20288;-60
2024/01/16 09:54:41;;;;;;;20.90;12.27;;;;;;;1.00;56.46;97368.16;6275124;22;20015;-53
2024/01/16 09:57:07;;;;;;;22.95;12.88;;;;;;;1.05;56.85;97390.66;6276910;22;20007;-63
2024/01/16 09:59:36;;;;;;;21.45;12.70;;;;;;;1.07;56.95;97400.09;6276439;22;20019;-59
2024/01/16 10:02:06;;;;;;;23.05;11.45;;;;;;;0.85;57.16;97362.34;6275069;22;20155;-56
2024/01/16 10:04:34;;;;;;;22.85;12.48;;;;;;;0.99;56.75;97369.13;6276832;22;20007;-59
2024/01/16 10:07:01;;;;;;;19.45;11.48;;;;;;;1.05;56.33;97377.47;6276236;22;20014;-60
2024/01/16 10:09:27;;;;;;;20.65;12.57;;;;;;;0.78;56.66;97308.44;6276415;22;19999;-58
2024/01/16 10:11:54;;;;;;;18.60;11.80;;;;;;;1.17;56.59;97371.19;6276216;22;20012;-55
2024/01/16 10:14:20;;;;;;;26.40;13.75;;;;;;;1.23;56.46;97356.69;6276181;22;20404;-60
2024/01/16 10:17:02;;;;;;;25.70;13.20;;;;;;;1.36;56.39;97365.28;6276481;22;19996;-57
2024/01/16 10:19:29;;;;;;;19.10;12.25;;;;;;;1.25;56.18;97342.44;6276518;22;20022;-58
2024/01/16 10:22:02;;;;;;;22.13;13.02;;;;;;;1.40;56.08;97350.03;6276312;22;20081;-56
2024/01/16 10:24:28;;;;;;;21.90;12.38;;;;;;;1.32;56.35;97358.56;6276569;22;20014;-58
2024/01/16 10:27:00;;;;;;;20.55;12.75;;;;;;;1.37;55.93;97343.22;6248486;22;20313;-58
2024/01/16 10:29:27;;;;;;;23.02;12.32;;;;;;;1.25;56.51;97347.72;6275464;22;20011;-57
2024/01/16 10:31:52;;;;;;;19.05;11.80;;;;;;;1.20;56.27;97357.78;6276625;22;20408;-57
2024/01/16 10:34:22;;;;;;;23.02;12.77;;;;;;;1.17;56.61;97342.22;6276868;22;20000;-57
2024/01/16 10:36:52;;;;;;;20.02;11.57;;;;;;;1.12;56.49;97353.16;6274979;22;20004;-61
2024/01/16 10:39:17;;;;;;;21.83;12.02;;;;;;;1.04;56.17;97358.19;6275482;22;20069;-57
2024/01/16 10:41:59;;;;;;;22.33;13.35;;;;;;;1.13;57.24;97348.69;6277029;22;20020;-56
2024/01/16 10:44:25;;;;;;;23.83;13.27;;;;;;;1.03;56.35;97331.97;6276101;22;20084;-57
2024/01/16 10:46:50;;;;;;;21.13;13.18;;;;;;;0.90;57.33;97332.16;6275822;22;20376;-56
2024/01/16 10:49:16;;;;;;;24.65;13.88;;;;;;;0.95;57.24;97345.78;6276557;22;20000;-58
2024/01/16 10:51:45;;;;;;;22.17;13.57;;;;;;;0.90;56.96;97322.44;6276945;22;19999;-56
2024/01/16 10:54:14;;;;;;;21.30;12.40;;;;;;;0.82;57.16;97309.06;6275921;22;20004;-53
2024/01/16 10:56:49;;;;;;;21.55;12.88;;;;;;;0.97;57.23;97338.56;6275808;22;20003;-55
2024/01/16 10:59:24;;;;;;;22.63;13.25;;;;;;;0.95;57.17;97324.69;6276066;22;20011;-55
2024/01/16 11:01:54;;;;;;;21.30;13.75;;;;;;;0.93;57.19;97316.09;6275486;22;20082;-56
2024/01/16 11:04:21;;;;;;;22.92;12.10;;;;;;;0.82;56.69;97299.34;6274711;22;20333;-53
2024/01/16 11:06:52;;;;;;;23.00;13.30;;;;;;;0.90;56.90;97322.44;6275778;22;20070;-55
2024/01/16 11:09:18;;;;;;;20.50;13.00;;;;;;;0.70;56.96;97298.53;6274359;22;20405;-54
2024/01/16 11:11:45;;;;;;;24.77;14.00;;;;;;;0.77;57.46;97308.59;6276402;22;20086;-56
2024/01/16 11:14:12;;;;;;;23.50;14.48;;;;;;;0.66;57.90;97304.19;6275924;22;20023;-59
2024/01/16 11:16:39;;;;;;;26.33;13.65;;;;;;;0.75;57.79;97300.81;6274755;22;20004;-60